createdAt,value
2019-03-08T00:01:47.289Z,1.40
2019-03-08T00:04:16.162Z,1.60
2019-03-08T00:06:45.332Z,1.30
2019-03-08T00:09:14.136Z,1.20
2019-03-08T00:11:43.221Z,1.37
2019-03-08T00:14:12.191Z,1.60
2019-03-08T00:16:41.434Z,1.33
2019-03-08T00:19:10.401Z,1.40
2019-03-08T00:21:39.274Z,1.43
2019-03-08T00:24:08.818Z,1.30
2019-03-08T00:26:38.012Z,1.20
2019-03-08T00:29:07.523Z,1.37
2019-03-08T00:31:39.155Z,1.40
2019-03-08T00:34:08.180Z,1.30
2019-03-08T00:36:37.147Z,1.30
2019-03-08T00:39:07.098Z,1.20
2019-03-08T00:41:35.960Z,1.17
2019-03-08T00:44:04.908Z,1.40
2019-03-08T00:46:34.061Z,1.20
2019-03-08T00:49:03.119Z,1.30
2019-03-08T00:51:32.254Z,1.40
2019-03-08T00:54:01.444Z,1.30
2019-03-08T00:56:30.573Z,1.30
2019-03-08T00:58:59.785Z,1.20
2019-03-08T01:01:28.687Z,1.10
2019-03-08T01:03:57.324Z,1.20
2019-03-08T01:06:26.266Z,1.37
2019-03-08T01:08:55.046Z,1.20
2019-03-08T01:11:23.984Z,1.50
2019-03-08T01:13:53.386Z,1.30
2019-03-08T01:16:22.252Z,1.73
2019-03-08T01:18:51.120Z,1.60
2019-03-08T01:21:19.983Z,1.90
2019-03-08T01:23:48.845Z,2.10
2019-03-08T01:26:17.661Z,2.47
2019-03-08T01:28:46.803Z,2.70
2019-03-08T01:31:15.596Z,1.00
2019-03-08T01:33:45.020Z,1.20
2019-03-08T01:36:13.892Z,1.20
2019-03-08T01:38:42.762Z,1.20
2019-03-08T01:41:11.707Z,1.03
2019-03-08T01:43:40.580Z,1.10
2019-03-08T01:46:09.514Z,1.10
2019-03-08T01:48:38.374Z,1.20
2019-03-08T01:51:07.248Z,1.20
2019-03-08T01:53:36.145Z,1.20
2019-03-08T01:56:05.109Z,1.10
2019-03-08T01:58:34.041Z,1.70
2019-03-08T02:01:02.911Z,1.20
2019-03-08T02:03:31.760Z,1.27
2019-03-08T02:06:00.627Z,1.20
2019-03-08T02:08:29.792Z,1.40
2019-03-08T02:10:58.972Z,1.30
2019-03-08T02:13:27.898Z,1.30
2019-03-08T02:15:56.823Z,1.20
2019-03-08T02:18:25.872Z,1.30
2019-03-08T02:20:54.665Z,1.47
2019-03-08T02:23:23.481Z,1.40
2019-03-08T02:25:52.739Z,1.10
2019-03-08T02:28:21.618Z,1.30
2019-03-08T02:30:50.456Z,1.17
2019-03-08T02:33:19.246Z,1.20
2019-03-08T02:35:48.316Z,1.37
2019-03-08T02:38:17.198Z,1.30
2019-03-08T02:40:46.364Z,1.40
2019-03-08T02:43:17.169Z,1.30
2019-03-08T02:45:46.246Z,1.53
2019-03-08T02:48:15.043Z,1.10
2019-03-08T02:50:44.152Z,1.30
2019-03-08T02:53:13.158Z,1.10
2019-03-08T02:55:42.074Z,1.30
2019-03-08T02:58:11.024Z,1.10
2019-03-08T03:00:44.649Z,1.40
2019-03-08T03:03:13.953Z,1.20
2019-03-08T03:05:42.997Z,1.20
2019-03-08T03:08:11.914Z,1.30
2019-03-08T03:10:41.081Z,1.70
2019-03-08T03:13:09.953Z,1.30
2019-03-08T03:15:38.802Z,1.20
2019-03-08T03:18:07.656Z,1.20
2019-03-08T03:20:36.768Z,1.10
2019-03-08T03:23:05.939Z,1.40
2019-03-08T03:25:34.791Z,1.20
2019-03-08T03:28:03.924Z,1.30
2019-03-08T03:30:32.699Z,1.20
2019-03-08T03:33:01.587Z,1.37
2019-03-08T03:35:30.525Z,1.40
2019-03-08T03:37:59.413Z,1.37
2019-03-08T03:40:28.525Z,1.30
2019-03-08T03:42:57.584Z,1.30
2019-03-08T03:45:26.428Z,1.80
2019-03-08T03:47:55.206Z,1.40
2019-03-08T03:50:24.160Z,1.37
2019-03-08T03:52:53.092Z,1.40
2019-03-08T03:55:22.028Z,1.40
2019-03-08T03:57:50.803Z,1.20
2019-03-08T04:00:20.063Z,1.30
2019-03-08T04:02:49.052Z,1.30
2019-03-08T04:05:18.722Z,1.40
2019-03-08T04:07:47.628Z,1.50
2019-03-08T04:10:16.557Z,1.23
2019-03-08T04:12:45.480Z,1.30
2019-03-08T04:15:15.621Z,1.30
2019-03-08T04:17:45.240Z,1.30
2019-03-08T04:20:14.947Z,1.30
2019-03-08T04:22:43.815Z,1.40
2019-03-08T04:25:12.864Z,1.20
2019-03-08T04:27:41.922Z,1.20
2019-03-08T04:30:12.876Z,1.30
2019-03-08T04:32:41.752Z,1.30
2019-03-08T04:35:10.676Z,1.40
2019-03-08T04:37:39.448Z,1.30
2019-03-08T04:40:09.342Z,1.20
2019-03-08T04:42:38.336Z,1.40
2019-03-08T04:45:07.790Z,1.20
2019-03-08T04:47:36.565Z,1.30
2019-03-08T04:50:05.860Z,1.20
2019-03-08T04:52:34.642Z,1.43
2019-03-08T04:55:03.580Z,1.40
2019-03-08T04:57:32.764Z,1.30
2019-03-08T05:00:01.553Z,1.40
2019-03-08T05:02:30.328Z,1.50
2019-03-08T05:04:59.187Z,1.30
2019-03-08T05:07:27.974Z,1.70
2019-03-08T05:09:57.043Z,2.50
2019-03-08T05:12:25.804Z,1.83
2019-03-08T05:14:54.857Z,1.40
2019-03-08T05:17:23.654Z,1.40
2019-03-08T05:19:52.512Z,1.40
2019-03-08T05:22:23.177Z,1.40
2019-03-08T05:24:51.880Z,1.40
2019-03-08T05:27:20.660Z,1.20
2019-03-08T05:29:49.824Z,1.50
2019-03-08T05:32:18.617Z,1.40
2019-03-08T05:34:47.691Z,1.17
2019-03-08T05:37:16.688Z,1.30
2019-03-08T05:39:45.555Z,1.40
2019-03-08T05:42:14.336Z,1.47
2019-03-08T05:44:43.405Z,1.30
2019-03-08T05:47:12.563Z,1.30
2019-03-08T05:49:41.445Z,1.30
2019-03-08T05:52:10.564Z,1.23
2019-03-08T05:54:39.343Z,1.40
2019-03-08T05:57:08.738Z,1.40
2019-03-08T05:59:37.784Z,1.43
2019-03-08T06:02:06.573Z,1.50
2019-03-08T06:04:35.373Z,1.40
2019-03-08T06:07:04.233Z,1.30
2019-03-08T06:09:33.080Z,1.40
2019-03-08T06:12:01.867Z,1.30
2019-03-08T06:14:30.986Z,1.43
2019-03-08T06:16:59.776Z,1.30
2019-03-08T06:19:28.846Z,1.37
2019-03-08T06:21:57.720Z,1.47
2019-03-08T06:24:26.873Z,1.40
2019-03-08T06:26:55.951Z,1.40
2019-03-08T06:29:25.067Z,1.37
2019-03-08T06:31:54.225Z,1.40
2019-03-08T06:34:23.429Z,1.83
2019-03-08T06:36:52.471Z,1.40
2019-03-08T06:39:21.313Z,1.40
2019-03-08T06:41:50.396Z,1.50
2019-03-08T06:44:19.461Z,1.80
2019-03-08T06:46:48.606Z,1.30
2019-03-08T06:49:17.393Z,1.20
2019-03-08T06:51:46.578Z,1.57
2019-03-08T06:54:15.769Z,1.40
2019-03-08T06:56:44.570Z,2.10
2019-03-08T06:59:18.515Z,1.57
2019-03-08T07:01:47.481Z,1.30
2019-03-08T07:04:16.286Z,2.23
2019-03-08T07:06:45.091Z,1.77
2019-03-08T07:09:13.848Z,1.30
2019-03-08T07:11:42.901Z,1.50
2019-03-08T07:14:11.803Z,1.80
2019-03-08T07:16:40.967Z,1.67
2019-03-08T07:19:09.781Z,1.50
2019-03-08T07:21:57.147Z,1.53
2019-03-08T07:24:48.322Z,1.70
2019-03-08T07:27:54.101Z,1.67
2019-03-08T07:30:42.792Z,1.43
2019-03-08T07:33:30.051Z,1.47
2019-03-08T07:36:05.345Z,1.30
2019-03-08T07:38:42.101Z,1.37
2019-03-08T07:41:20.654Z,2.50
2019-03-08T07:44:05.505Z,1.37
2019-03-08T07:46:52.620Z,1.50
2019-03-08T07:49:30.108Z,1.40
2019-03-08T07:52:20.887Z,1.53
2019-03-08T07:54:55.935Z,1.70
2019-03-08T07:58:05.221Z,1.93
2019-03-08T08:00:45.336Z,1.80
2019-03-08T08:03:20.499Z,1.70
2019-03-08T08:06:11.215Z,1.50
2019-03-08T08:09:01.878Z,1.40
2019-03-08T08:11:41.533Z,1.33
2019-03-08T08:14:28.156Z,1.30
2019-03-08T08:17:07.794Z,1.57
2019-03-08T08:20:01.545Z,1.40
2019-03-08T08:22:52.615Z,2.60
2019-03-08T08:25:36.846Z,1.60
2019-03-08T08:28:34.253Z,3.27
2019-03-08T08:31:23.441Z,2.17
2019-03-08T08:34:11.398Z,1.23
2019-03-08T08:37:05.671Z,2.00
2019-03-08T08:39:56.622Z,1.50
2019-03-08T08:42:47.350Z,1.53
2019-03-08T08:45:44.508Z,1.47
2019-03-08T08:48:20.252Z,1.67
2019-03-08T08:51:17.444Z,1.30
2019-03-08T08:53:54.287Z,1.70
2019-03-08T08:56:48.693Z,1.50
2019-03-08T08:59:36.246Z,1.80
2019-03-08T09:02:23.476Z,1.47
2019-03-08T09:05:06.062Z,1.60
2019-03-08T09:07:49.391Z,1.60
2019-03-08T09:10:38.966Z,1.30
2019-03-08T09:13:25.385Z,1.33
2019-03-08T09:16:00.287Z,1.23
2019-03-08T09:18:57.264Z,1.73
2019-03-08T09:21:40.384Z,1.20
2019-03-08T09:24:14.516Z,1.50
2019-03-08T09:27:11.461Z,1.60
2019-03-08T09:30:06.527Z,1.40
2019-03-08T09:32:41.975Z,1.30
2019-03-08T09:35:33.178Z,1.23
2019-03-08T09:38:21.460Z,1.80
2019-03-08T09:41:08.039Z,1.50
2019-03-08T09:43:43.068Z,1.60
2019-03-08T09:46:30.965Z,1.30
2019-03-08T09:49:13.667Z,1.30
2019-03-08T09:51:55.625Z,1.30
2019-03-08T09:54:36.934Z,1.30
2019-03-08T09:57:11.938Z,1.50
2019-03-08T09:59:55.076Z,1.97
2019-03-08T10:02:41.637Z,1.50
2019-03-08T10:05:36.921Z,1.40
2019-03-08T10:08:34.949Z,1.60
2019-03-08T10:11:20.761Z,1.40
2019-03-08T10:14:08.273Z,1.63
2019-03-08T10:16:42.684Z,1.30
2019-03-08T10:19:18.448Z,1.40
2019-03-08T10:22:06.663Z,1.33
2019-03-08T10:24:49.717Z,1.23
2019-03-08T10:27:23.653Z,1.20
2019-03-08T10:30:20.631Z,1.63
2019-03-08T10:32:55.272Z,1.37
2019-03-08T10:35:37.710Z,1.60
2019-03-08T10:38:22.403Z,1.50
2019-03-08T10:40:57.200Z,1.37
2019-03-08T10:43:44.240Z,1.57
2019-03-08T10:46:30.864Z,1.50
2019-03-08T10:49:20.877Z,1.30
2019-03-08T10:52:17.344Z,1.20
2019-03-08T10:55:01.709Z,1.60
2019-03-08T10:57:48.780Z,1.97
2019-03-08T11:00:36.898Z,2.63
2019-03-08T11:03:23.944Z,1.90
2019-03-08T11:06:04.533Z,2.33
2019-03-08T11:09:01.443Z,2.50
2019-03-08T11:11:44.674Z,2.33
2019-03-08T11:14:29.142Z,2.27
2019-03-08T11:17:10.041Z,2.13
2019-03-08T11:20:01.949Z,2.17
2019-03-08T11:22:37.813Z,2.23
2019-03-08T11:25:41.284Z,2.33
2019-03-08T11:28:34.690Z,1.93
2019-03-08T11:31:21.592Z,2.57
2019-03-08T11:34:00.725Z,2.03
2019-03-08T11:36:48.629Z,2.33
2019-03-08T11:39:51.984Z,2.00
2019-03-08T11:42:39.940Z,2.13
2019-03-08T11:45:34.973Z,2.23
2019-03-08T11:48:26.549Z,1.97
2019-03-08T11:51:11.296Z,2.20
2019-03-08T11:53:59.446Z,2.00
2019-03-08T11:56:44.900Z,2.40
2019-03-08T11:59:32.772Z,2.27
2019-03-08T12:02:20.051Z,2.27
2019-03-08T12:04:56.125Z,2.33
2019-03-08T12:07:40.108Z,3.80
2019-03-08T12:10:17.149Z,2.80
2019-03-08T12:12:56.900Z,2.00
2019-03-08T12:15:52.912Z,2.43
2019-03-08T12:18:36.657Z,2.03
2019-03-08T12:21:22.173Z,2.73
2019-03-08T12:24:02.606Z,2.23
2019-03-08T12:26:50.558Z,1.57
2019-03-08T12:29:25.228Z,2.23
2019-03-08T12:32:12.135Z,1.73
2019-03-08T12:34:59.050Z,2.33
2019-03-08T12:38:06.351Z,2.40
2019-03-08T12:40:45.527Z,2.50
2019-03-08T12:43:36.349Z,2.27
2019-03-08T12:46:23.385Z,2.20
2019-03-08T12:49:11.471Z,2.43
2019-03-08T12:51:57.776Z,1.40
2019-03-08T12:54:45.686Z,1.30
2019-03-08T12:57:33.052Z,1.30
2019-03-08T13:00:21.860Z,1.40
2019-03-08T13:03:02.353Z,2.23
2019-03-08T13:05:49.600Z,2.23
2019-03-08T13:08:29.211Z,1.90
2019-03-08T13:10:57.997Z,1.87
2019-03-08T13:13:26.797Z,2.17
2019-03-08T13:15:55.561Z,2.23
2019-03-08T13:18:24.756Z,2.10
2019-03-08T13:20:53.541Z,2.80
2019-03-08T13:23:22.473Z,1.30
2019-03-08T13:25:51.285Z,2.63
2019-03-08T13:28:20.077Z,1.53
2019-03-08T13:30:48.928Z,1.77
2019-03-08T13:33:17.889Z,1.77
2019-03-08T13:35:46.830Z,1.27
2019-03-08T13:38:15.643Z,1.83
2019-03-08T13:40:44.429Z,1.10
2019-03-08T13:43:13.236Z,1.30
2019-03-08T13:45:42.165Z,1.10
2019-03-08T13:48:11.313Z,1.40
2019-03-08T13:50:40.157Z,1.40
2019-03-08T13:53:09.306Z,1.20
2019-03-08T13:55:38.359Z,1.63
2019-03-08T13:58:07.166Z,1.40
2019-03-08T14:00:36.176Z,1.50
2019-03-08T14:03:05.800Z,1.57
2019-03-08T14:05:34.606Z,1.40
2019-03-08T14:08:03.686Z,1.40
2019-03-08T14:10:32.476Z,1.30
2019-03-08T14:13:01.268Z,1.40
2019-03-08T14:15:30.062Z,1.30
2019-03-08T14:17:58.865Z,1.40
2019-03-08T14:20:27.704Z,1.80
2019-03-08T14:22:57.286Z,1.70
2019-03-08T14:25:26.135Z,1.60
2019-03-08T14:27:54.946Z,1.67
2019-03-08T14:30:26.825Z,1.50
2019-03-08T14:32:58.032Z,2.23
2019-03-08T14:35:29.246Z,1.30
2019-03-08T14:37:57.150Z,1.37
2019-03-08T14:40:43.275Z,1.37
2019-03-08T14:43:21.432Z,1.33
2019-03-08T14:45:58.849Z,1.50
2019-03-08T14:48:27.629Z,1.20
2019-03-08T14:50:56.414Z,1.53
2019-03-08T14:53:28.327Z,1.10
2019-03-08T14:55:59.179Z,1.43
2019-03-08T14:58:26.805Z,1.30
2019-03-08T15:00:55.609Z,1.10
2019-03-08T15:03:24.839Z,1.80
2019-03-08T15:05:54.902Z,1.20
2019-03-08T15:08:24.752Z,1.33
2019-03-08T15:10:53.617Z,1.20
2019-03-08T15:13:24.165Z,1.40
2019-03-08T15:15:53.986Z,1.37
2019-03-08T15:18:25.963Z,1.50
2019-03-08T15:20:54.816Z,1.47
2019-03-08T15:23:24.014Z,1.30
2019-03-08T15:25:53.201Z,1.30
2019-03-08T15:28:22.069Z,1.20
2019-03-08T15:30:50.940Z,1.20
2019-03-08T15:33:19.775Z,1.20
2019-03-08T15:35:48.640Z,1.37
2019-03-08T15:38:17.500Z,1.20
2019-03-08T15:40:48.719Z,1.30
2019-03-08T15:43:17.299Z,1.07
2019-03-08T15:45:46.800Z,1.10
2019-03-08T15:48:16.048Z,1.30
2019-03-08T15:50:46.769Z,1.10
2019-03-08T15:53:15.803Z,1.00
2019-03-08T15:55:52.615Z,1.40
2019-03-08T15:58:15.469Z,1.40
2019-03-08T16:00:44.729Z,1.50
2019-03-08T16:03:13.596Z,1.20
2019-03-08T16:05:42.805Z,1.13
2019-03-08T16:08:12.061Z,1.60
2019-03-08T16:10:41.121Z,1.20
2019-03-08T16:13:09.959Z,1.30
2019-03-08T16:15:38.761Z,1.43
2019-03-08T16:18:07.623Z,1.40
2019-03-08T16:20:37.248Z,1.30
2019-03-08T16:23:08.166Z,1.53
2019-03-08T16:25:40.568Z,1.40
2019-03-08T16:28:08.001Z,1.80
2019-03-08T16:30:38.776Z,1.70
2019-03-08T16:33:14.697Z,2.90
2019-03-08T16:35:59.174Z,2.23
2019-03-08T16:38:46.982Z,1.60
2019-03-08T16:41:34.556Z,1.60
2019-03-08T16:44:25.060Z,1.20
2019-03-08T16:47:19.951Z,1.50
2019-03-08T16:50:05.143Z,1.30
2019-03-08T16:52:40.386Z,1.53
2019-03-08T16:55:22.069Z,1.50
2019-03-08T16:58:08.779Z,1.57
2019-03-08T17:00:58.342Z,1.60
2019-03-08T17:03:55.154Z,1.60
2019-03-08T17:06:34.316Z,1.40
2019-03-08T17:09:12.729Z,1.83
2019-03-08T17:11:47.986Z,1.30
2019-03-08T17:14:39.120Z,3.10
2019-03-08T17:17:32.889Z,2.07
2019-03-08T17:20:21.877Z,1.70
2019-03-08T17:23:04.412Z,1.60
2019-03-08T17:25:49.910Z,2.03
2019-03-08T17:28:40.930Z,2.53
2019-03-08T17:31:17.180Z,2.07
2019-03-08T17:33:53.840Z,2.30
2019-03-08T17:36:32.568Z,2.60
2019-03-08T17:39:12.124Z,1.80
2019-03-08T17:42:09.881Z,2.27
2019-03-08T17:44:50.058Z,2.50
2019-03-08T17:47:53.451Z,1.87
2019-03-08T17:50:40.252Z,1.80
2019-03-08T17:53:20.318Z,2.00
2019-03-08T17:56:06.962Z,1.90
2019-03-08T17:58:58.041Z,1.67
2019-03-08T18:01:52.411Z,2.10
2019-03-08T18:04:33.810Z,2.30
2019-03-08T18:07:30.793Z,2.20
2019-03-08T18:10:17.472Z,2.40
2019-03-08T18:12:57.601Z,2.10
2019-03-08T18:15:44.402Z,2.10
2019-03-08T18:18:24.580Z,3.40
2019-03-08T18:21:08.733Z,2.93
2019-03-08T18:24:05.896Z,2.30
2019-03-08T18:26:53.774Z,2.63
2019-03-08T18:30:00.337Z,2.50
2019-03-08T18:32:48.340Z,4.03
2019-03-08T18:35:31.742Z,2.47
2019-03-08T18:38:23.838Z,2.70
2019-03-08T18:41:17.796Z,2.97
2019-03-08T18:43:57.183Z,3.70
2019-03-08T18:46:48.542Z,2.33
2019-03-08T18:49:48.657Z,2.43
2019-03-08T18:52:42.438Z,1.80
2019-03-08T18:55:29.297Z,2.10
2019-03-08T18:58:27.418Z,2.00
2019-03-08T19:01:19.663Z,2.23
2019-03-08T19:04:10.052Z,2.73
2019-03-08T19:06:49.020Z,1.97
2019-03-08T19:09:23.293Z,2.47
2019-03-08T19:12:17.340Z,2.30
2019-03-08T19:15:00.348Z,2.47
2019-03-08T19:17:48.447Z,2.80
2019-03-08T19:20:31.750Z,1.83
2019-03-08T19:23:09.045Z,2.80
2019-03-08T19:26:06.182Z,2.20
2019-03-08T19:29:03.626Z,3.07
2019-03-08T19:31:44.138Z,2.60
2019-03-08T19:34:19.574Z,2.73
2019-03-08T19:37:06.173Z,2.50
2019-03-08T19:40:06.480Z,2.70
2019-03-08T19:43:06.227Z,3.50
2019-03-08T19:46:00.350Z,3.23
2019-03-08T19:48:40.274Z,3.43
2019-03-08T19:51:31.007Z,2.60
2019-03-08T19:54:27.962Z,2.20
2019-03-08T19:57:15.856Z,2.53
2019-03-08T20:00:02.365Z,2.03
2019-03-08T20:02:46.096Z,2.37
2019-03-08T20:05:33.037Z,1.80
2019-03-08T20:08:16.464Z,2.20
2019-03-08T20:11:07.157Z,2.60
2019-03-08T20:13:48.656Z,2.33
2019-03-08T20:16:26.051Z,2.10
2019-03-08T20:19:13.031Z,2.17
2019-03-08T20:21:59.250Z,2.40
2019-03-08T20:24:49.997Z,1.73
2019-03-08T20:27:43.798Z,2.17
2019-03-08T20:30:25.546Z,2.10
2019-03-08T20:33:13.496Z,1.83
2019-03-08T20:36:01.497Z,1.80
2019-03-08T20:38:46.038Z,1.97
2019-03-08T20:41:33.427Z,1.87
2019-03-08T20:44:13.142Z,2.10
2019-03-08T20:46:49.134Z,1.80
2019-03-08T20:49:18.065Z,1.97
2019-03-08T20:51:46.924Z,2.13
2019-03-08T20:54:15.747Z,2.00
2019-03-08T20:56:44.554Z,1.90
2019-03-08T20:59:13.354Z,2.43
2019-03-08T21:01:42.784Z,2.20
2019-03-08T21:04:12.032Z,2.27
2019-03-08T21:06:40.984Z,2.10
2019-03-08T21:09:10.827Z,1.90
2019-03-08T21:11:39.973Z,1.90
2019-03-08T21:14:08.783Z,1.80
2019-03-08T21:16:37.954Z,2.20
2019-03-08T21:19:06.751Z,2.30
2019-03-08T21:21:35.630Z,1.87
2019-03-08T21:24:04.987Z,1.87
2019-03-08T21:26:33.839Z,1.77
2019-03-08T21:29:04.053Z,2.40
2019-03-08T21:31:32.941Z,2.10
2019-03-08T21:34:01.782Z,2.40
2019-03-08T21:36:30.692Z,1.90
2019-03-08T21:38:59.900Z,1.73
2019-03-08T21:41:28.727Z,1.77
2019-03-08T21:43:57.630Z,1.90
2019-03-08T21:46:26.634Z,2.30
2019-03-08T21:48:55.510Z,1.97
2019-03-08T21:51:24.520Z,2.33
2019-03-08T21:53:54.215Z,2.43
2019-03-08T21:56:23.723Z,2.47
2019-03-08T21:58:52.585Z,2.10
2019-03-08T22:01:21.612Z,2.07
2019-03-08T22:04:01.136Z,2.60
2019-03-08T22:06:30.894Z,2.43
2019-03-08T22:09:05.969Z,2.40
2019-03-08T22:11:37.277Z,2.00
2019-03-08T22:14:08.261Z,2.50
2019-03-08T22:16:36.712Z,1.83
2019-03-08T22:19:05.587Z,2.83
2019-03-08T22:21:34.677Z,2.03
2019-03-08T22:24:12.893Z,2.30
2019-03-08T22:26:34.251Z,2.03
2019-03-08T22:29:03.479Z,2.20
2019-03-08T22:31:32.281Z,2.07
2019-03-08T22:34:01.983Z,2.00
2019-03-08T22:36:30.990Z,2.20
2019-03-08T22:39:00.637Z,2.70
2019-03-08T22:41:29.521Z,2.00
2019-03-08T22:43:58.347Z,1.70
2019-03-08T22:46:27.276Z,1.90
2019-03-08T22:48:56.326Z,1.97
2019-03-08T22:51:25.153Z,2.60
2019-03-08T22:53:53.953Z,2.83
2019-03-08T22:56:23.337Z,2.40
2019-03-08T22:58:52.129Z,1.90
2019-03-08T23:01:22.169Z,2.17
2019-03-08T23:03:51.531Z,1.87
2019-03-08T23:06:21.133Z,2.10
2019-03-08T23:08:50.257Z,3.03
2019-03-08T23:11:19.534Z,2.40
2019-03-08T23:13:48.326Z,2.13
2019-03-08T23:16:17.252Z,2.17
2019-03-08T23:18:46.452Z,1.93
2019-03-08T23:21:15.613Z,2.23
2019-03-08T23:23:44.406Z,2.20
2019-03-08T23:26:13.264Z,2.10
2019-03-08T23:28:45.783Z,2.30
2019-03-08T23:31:25.327Z,2.67
2019-03-08T23:33:54.114Z,2.07
2019-03-08T23:36:22.933Z,1.70
2019-03-08T23:38:51.724Z,1.90
2019-03-08T23:41:20.990Z,1.87
2019-03-08T23:43:49.772Z,2.00
2019-03-08T23:46:18.724Z,2.07
2019-03-08T23:48:47.826Z,1.90
2019-03-08T23:51:17.161Z,1.90
2019-03-08T23:53:45.945Z,2.00
2019-03-08T23:56:14.846Z,2.47
2019-03-08T23:58:43.641Z,1.80
